Time;durP1;ratioP1;P1;durP2;ratioP2;P2;SDS_P1;SDS_P2;PMS_P1;PMS_P2;Temp;Humidity;BMP_temperature;BMP_pressure;BME280_temperature;BME280_humidity;BME280_pressure;Samples;Min_cycle;Max_cycle;Signal;HPM_P1;HPM_P2
2021/10/16 00:00:37;;;;;;;8.50;1.55;;;;;;;10.06;68.90;100793.41;4745436;30;20035;-79
2021/10/16 00:03:03;;;;;;;11.48;1.42;;;;;;;10.22;68.50;100832.63;4790992;30;20031;-79
2021/10/16 00:05:29;;;;;;;5.40;1.10;;;;;;;10.11;70.31;100817.03;4773602;30;20038;-79
2021/10/16 00:07:56;;;;;;;6.43;1.42;;;;;;;10.17;70.73;100829.72;4758697;30;20132;-79
2021/10/16 00:10:21;;;;;;;11.23;2.15;;;;;;;10.13;73.62;100825.72;4773531;30;20092;-78
2021/10/16 00:12:47;;;;;;;12.52;2.20;;;;;;;10.19;75.72;100833.03;4788860;30;20413;-79
2021/10/16 00:15:13;;;;;;;15.02;2.20;;;;;;;9.95;78.24;100788.59;4773600;30;20035;-79
2021/10/16 00:17:39;;;;;;;9.63;1.65;;;;;;;10.13;78.80;100825.72;4772451;30;20039;-79
2021/10/16 00:20:06;;;;;;;14.20;2.95;;;;;;;10.12;80.76;100826.75;4789493;30;20028;-79
2021/10/16 00:22:32;;;;;;;11.93;2.10;;;;;;;10.05;81.03;100844.72;4773422;30;20031;-79
2021/10/16 00:24:57;;;;;;;11.13;2.30;;;;;;;10.01;79.82;100816.56;4748745;30;20046;-79
2021/10/16 00:27:22;;;;;;;9.00;1.83;;;;;;;10.06;80.04;100824.84;4743114;30;20518;-79
2021/10/16 00:29:48;;;;;;;12.43;2.55;;;;;;;10.06;79.14;100824.84;4749104;30;20152;-79
2021/10/16 00:32:13;;;;;;;11.25;1.70;;;;;;;10.05;80.14;100825.88;4787531;30;20043;-79
2021/10/16 00:34:39;;;;;;;14.52;2.65;;;;;;;10.07;80.16;100832.75;4755862;30;20382;-79
2021/10/16 00:37:04;;;;;;;13.85;2.63;;;;;;;10.04;80.52;100808.09;4770778;30;20031;-79
2021/10/16 00:39:30;;;;;;;17.90;2.67;;;;;;;10.09;81.54;100835.22;4761157;30;20036;-79
2021/10/16 00:41:55;;;;;;;17.20;2.47;;;;;;;10.10;81.38;100831.53;4755651;30;20362;-80
2021/10/16 00:44:24;;;;;;;9.88;1.95;;;;;;;10.14;79.74;100827.41;4771960;30;20058;-79
2021/10/16 00:46:56;;;;;;;13.02;2.28;;;;;;;10.12;80.30;100826.75;4754480;30;20096;-79
2021/10/16 00:49:23;;;;;;;8.43;1.80;;;;;;;10.20;79.92;100836.53;4755413;30;20479;-79
2021/10/16 00:51:49;;;;;;;9.70;1.70;;;;;;;10.16;79.39;100822.66;4777210;30;20059;-79
2021/10/16 00:54:15;;;;;;;21.17;3.30;;;;;;;10.08;80.26;100812.06;4772571;30;20420;-79
2021/10/16 00:56:43;;;;;;;15.05;2.55;;;;;;;10.17;80.51;100827.03;4788669;30;20043;-79
2021/10/16 00:59:09;;;;;;;10.23;1.73;;;;;;;10.18;81.20;100822.47;4771983;30;20039;-79
2021/10/16 01:01:36;;;;;;;9.77;2.22;;;;;;;10.15;81.02;100821.00;4773397;30;20371;-79
2021/10/16 01:04:04;;;;;;;11.55;2.50;;;;;;;10.21;82.60;100819.41;4773219;30;20035;-80
2021/10/16 01:06:31;;;;;;;17.20;3.25;;;;;;;10.24;83.08;100819.00;4771358;30;20042;-79
2021/10/16 01:08:57;;;;;;;12.77;2.53;;;;;;;10.13;81.79;100796.16;4777521;30;20139;-79
2021/10/16 01:11:38;;;;;;;8.32;1.83;;;;;;;10.27;81.13;100815.94;4758096;30;20356;-79
2021/10/16 01:14:13;;;;;;;12.93;2.58;;;;;;;10.25;80.45;100799.16;4770691;30;20451;-79
2021/10/16 01:16:42;;;;;;;11.68;2.17;;;;;;;10.31;78.92;100793.00;4771821;30;20112;-79
2021/10/16 01:19:12;;;;;;;15.70;2.72;;;;;;;10.43;78.50;100801.34;4789964;30;20033;-79
2021/10/16 01:21:43;;;;;;;14.88;2.70;;;;;;;10.51;80.17;100811.97;4788721;30;20027;-79
2021/10/16 01:24:11;;;;;;;11.20;1.95;;;;;;;10.46;79.71;100807.19;4759442;30;20031;-79
2021/10/16 01:26:37;;;;;;;9.95;2.13;;;;;;;10.48;79.46;100812.34;4787850;30;20052;-79
2021/10/16 01:29:04;;;;;;;11.98;2.25;;;;;;;10.43;77.78;100814.78;4773231;30;20035;-78
2021/10/16 01:31:30;;;;;;;10.60;2.00;;;;;;;10.10;76.95;100758.94;4771639;30;20031;-79
2021/10/16 01:33:55;;;;;;;7.00;1.92;;;;;;;10.49;76.58;100797.88;4788621;30;20031;-79
2021/10/16 01:36:22;;;;;;;13.35;1.92;;;;;;;10.30;77.48;100785.97;4758293;30;20405;-79
2021/10/16 01:38:47;;;;;;;17.60;2.15;;;;;;;10.42;78.69;100799.69;4754938;30;20039;-79
2021/10/16 01:41:13;;;;;;;17.45;2.67;;;;;;;10.44;79.00;100801.16;4755095;30;20560;-79
2021/10/16 01:43:39;;;;;;;17.63;3.97;;;;;;;10.42;79.64;100803.19;4762818;30;20046;-79
2021/10/16 01:46:05;;;;;;;24.05;2.75;;;;;;;10.37;80.63;100802.97;4774063;30;20344;-79
2021/10/16 01:48:30;;;;;;;14.27;2.63;;;;;;;10.10;79.89;100746.31;4773855;30;20050;-79
2021/10/16 01:50:55;;;;;;;22.63;3.10;;;;;;;10.28;80.01;100764.66;4789185;30;20039;-79
2021/10/16 01:53:21;;;;;;;12.15;2.05;;;;;;;10.50;79.27;100781.53;4788219;30;20035;-79
2021/10/16 01:55:47;;;;;;;12.23;2.15;;;;;;;10.59;78.64;100784.88;4772475;30;20389;-79
2021/10/16 01:58:15;;;;;;;15.05;2.65;;;;;;;10.58;78.66;100775.16;4757566;30;20375;-79
2021/10/16 02:00:44;;;;;;;13.00;2.47;;;;;;;10.57;77.66;100770.81;4770958;30;20046;-80
2021/10/16 02:03:11;;;;;;;12.93;2.72;;;;;;;10.54;78.05;100753.19;4773832;30;20038;-79
2021/10/16 02:05:41;;;;;;;13.85;2.58;;;;;;;10.72;79.05;100778.72;4771977;30;20556;-78
2021/10/16 02:08:07;;;;;;;9.57;2.67;;;;;;;10.49;77.65;100738.69;4773124;30;20080;-79
2021/10/16 02:10:32;;;;;;;13.57;2.60;;;;;;;9.69;77.41;100628.00;4783604;30;20035;-79
2021/10/16 02:12:58;;;;;;;16.73;3.58;;;;;;;10.61;77.76;100765.84;4770369;30;20530;-78
2021/10/16 02:15:24;;;;;;;13.95;2.47;;;;;;;10.60;78.20;100766.91;4726661;30;20067;-79
2021/10/16 02:17:49;;;;;;;10.88;2.15;;;;;;;10.76;78.90;100785.34;4790204;29;20062;-79
2021/10/16 02:20:14;;;;;;;16.92;3.15;;;;;;;9.95;79.09;100654.19;4779635;30;20065;-78
2021/10/16 02:22:40;;;;;;;19.45;2.83;;;;;;;10.70;79.02;100784.31;4780075;30;20065;-79
2021/10/16 02:25:07;;;;;;;19.17;3.13;;;;;;;10.72;78.01;100789.50;4789075;30;20096;-79
2021/10/16 02:27:33;;;;;;;11.50;2.55;;;;;;;10.74;77.01;100793.66;4774963;30;20104;-79
2021/10/16 02:29:58;;;;;;;19.00;2.67;;;;;;;10.72;77.31;100786.81;4760525;30;20106;-80
2021/10/16 02:32:23;;;;;;;15.73;3.05;;;;;;;10.71;78.48;100785.97;4743009;30;20044;-79
2021/10/16 02:34:49;;;;;;;18.73;3.22;;;;;;;10.69;79.05;100789.88;4758127;30;20061;-79
2021/10/16 02:37:14;;;;;;;15.82;3.20;;;;;;;10.66;78.34;100782.22;4760222;30;20047;-79
2021/10/16 02:39:39;;;;;;;13.95;2.72;;;;;;;10.34;77.14;100726.19;4759289;30;20360;-79
2021/10/16 02:42:05;;;;;;;10.43;2.78;;;;;;;10.57;75.91;100743.91;4790839;30;20039;-79
2021/10/16 02:44:31;;;;;;;13.65;2.22;;;;;;;10.76;76.28;100778.16;4774514;30;20515;-79
2021/10/16 02:46:57;;;;;;;14.15;3.22;;;;;;;10.75;76.27;100781.84;4775899;30;20035;-79
2021/10/16 02:49:22;;;;;;;14.40;3.10;;;;;;;10.81;76.45;100746.06;4789790;30;20050;-79
2021/10/16 02:51:48;;;;;;;21.25;3.95;;;;;;;10.70;77.23;100762.78;4774808;30;20023;-79
2021/10/16 02:54:15;;;;;;;7.55;1.55;;;;;;;10.79;76.00;100760.72;4791190;30;20027;-79
2021/10/16 02:56:40;;;;;;;18.10;3.53;;;;;;;10.78;77.25;100769.84;4775028;30;20035;-79
2021/10/16 02:59:06;;;;;;;19.63;3.63;;;;;;;10.52;78.01;100733.72;4775794;30;20152;-80
2021/10/16 03:01:31;;;;;;;18.35;2.88;;;;;;;10.74;77.25;100777.50;4757034;30;20173;-79
2021/10/16 03:03:57;;;;;;;16.08;3.08;;;;;;;10.64;77.17;100758.22;4757755;30;20039;-79
2021/10/16 03:06:22;;;;;;;20.00;3.53;;;;;;;10.50;76.97;100740.34;4773383;30;20039;-79
2021/10/16 03:08:48;;;;;;;20.45;3.40;;;;;;;10.62;77.35;100743.28;4758449;30;20039;-79
2021/10/16 03:11:13;;;;;;;16.25;3.25;;;;;;;10.62;76.50;100749.50;4777090;30;20031;-79
2021/10/16 03:13:39;;;;;;;15.05;3.22;;;;;;;10.63;76.89;100753.00;4777632;30;20034;-79
2021/10/16 03:16:05;;;;;;;19.55;3.83;;;;;;;10.69;77.18;100765.66;4776810;30;20027;-79
2021/10/16 03:18:30;;;;;;;20.20;3.70;;;;;;;10.54;78.02;100734.38;4791214;30;20041;-79
2021/10/16 03:20:56;;;;;;;25.92;3.13;;;;;;;10.74;77.56;100755.97;4774217;30;20027;-79
2021/10/16 03:23:22;;;;;;;20.30;3.15;;;;;;;10.66;78.12;100747.22;4790197;30;20046;-79
2021/10/16 03:25:47;;;;;;;12.00;3.08;;;;;;;10.65;78.10;100742.88;4789783;30;20065;-80
2021/10/16 03:28:13;;;;;;;22.00;3.75;;;;;;;10.75;78.16;100765.69;4759181;29;20047;-79
2021/10/16 03:30:38;;;;;;;13.43;2.60;;;;;;;10.79;77.14;100745.44;4777262;30;20054;-80
2021/10/16 03:33:05;;;;;;;15.82;2.85;;;;;;;10.72;76.89;100757.19;4761278;30;20119;-79
2021/10/16 03:35:31;;;;;;;16.38;3.08;;;;;;;10.77;77.58;100768.19;4772902;30;20039;-79
2021/10/16 03:37:56;;;;;;;17.23;3.00;;;;;;;10.70;77.95;100752.03;4780550;30;20066;-79
2021/10/16 03:40:21;;;;;;;16.52;2.58;;;;;;;10.79;78.02;100755.34;4757070;30;20038;-78
2021/10/16 03:42:47;;;;;;;15.07;3.35;;;;;;;10.83;79.64;100735.09;4773635;30;20043;-80
2021/10/16 03:45:12;;;;;;;23.30;3.63;;;;;;;10.80;79.34;100760.56;4774092;30;20126;-79
2021/10/16 03:47:38;;;;;;;22.83;4.30;;;;;;;10.78;79.05;100767.16;4773514;30;20035;-79
2021/10/16 03:50:04;;;;;;;20.85;3.10;;;;;;;10.84;78.31;100769.06;4775375;30;20130;-79
2021/10/16 03:52:30;;;;;;;11.07;2.28;;;;;;;10.86;76.15;100761.63;4774156;30;20031;-79
2021/10/16 03:54:55;;;;;;;11.52;2.30;;;;;;;10.73;76.13;100745.41;4774432;30;20027;-79
2021/10/16 03:57:21;;;;;;;11.32;2.45;;;;;;;10.82;76.03;100771.94;4758070;30;20370;-79
2021/10/16 03:59:46;;;;;;;9.55;2.47;;;;;;;10.79;75.27;100758.91;4773976;30;20371;-79
2021/10/16 04:02:12;;;;;;;14.35;2.60;;;;;;;10.73;74.29;100759.69;4756725;30;20027;-79
2021/10/16 04:04:37;;;;;;;11.32;1.88;;;;;;;10.70;76.02;100756.59;4774345;30;20054;-79
2021/10/16 04:07:03;;;;;;;17.77;2.80;;;;;;;10.68;76.77;100753.25;4757812;30;20031;-79
2021/10/16 04:09:29;;;;;;;10.48;2.55;;;;;;;10.88;77.80;100766.78;4785485;30;20032;-79
2021/10/16 04:11:55;;;;;;;15.30;2.58;;;;;;;10.70;78.06;100738.56;4785634;30;20046;-78
2021/10/16 04:14:20;;;;;;;20.30;3.30;;;;;;;10.88;78.32;100773.00;4783812;30;20125;-78
2021/10/16 04:16:46;;;;;;;10.77;2.50;;;;;;;10.88;77.14;100764.09;4772300;30;20039;-79
2021/10/16 04:19:11;;;;;;;13.95;2.67;;;;;;;10.88;77.42;100758.72;4773181;30;20027;-79
2021/10/16 04:21:37;;;;;;;13.35;2.65;;;;;;;10.87;77.02;100743.59;4788660;30;20039;-79
2021/10/16 04:24:03;;;;;;;22.98;4.15;;;;;;;10.84;77.71;100760.16;4790238;30;20031;-79
2021/10/16 04:26:28;;;;;;;16.50;3.03;;;;;;;10.87;77.84;100743.59;4773259;30;20164;-79
2021/10/16 04:28:54;;;;;;;22.02;3.55;;;;;;;10.74;79.57;100725.53;4773787;30;20167;-79
2021/10/16 04:31:20;;;;;;;29.98;5.00;;;;;;;10.84;79.96;100741.31;4789495;30;20497;-79
2021/10/16 04:33:45;;;;;;;16.77;2.70;;;;;;;10.93;77.62;100762.47;4774266;30;20485;-79
2021/10/16 04:36:10;;;;;;;16.95;3.20;;;;;;;10.83;75.94;100737.78;4758254;30;20031;-78
2021/10/16 04:38:36;;;;;;;21.77;4.07;;;;;;;10.93;76.60;100751.69;4758488;30;20081;-79
2021/10/16 04:41:02;;;;;;;15.77;2.75;;;;;;;10.81;76.05;100737.97;4776540;30;20103;-79
2021/10/16 04:43:28;;;;;;;15.10;2.42;;;;;;;10.90;75.19;100759.34;4790422;30;20035;-79
2021/10/16 04:45:54;;;;;;;16.05;3.05;;;;;;;10.63;75.03;100713.50;4764978;30;20047;-79
2021/10/16 04:48:19;;;;;;;22.10;3.35;;;;;;;10.87;75.85;100755.19;4770662;30;20039;-79
2021/10/16 04:50:46;;;;;;;19.50;3.28;;;;;;;10.95;75.44;100759.56;4778581;30;20039;-79
2021/10/16 04:53:13;;;;;;;14.52;2.55;;;;;;;10.97;76.22;100757.50;4758460;30;20027;-78
2021/10/16 04:55:38;;;;;;;19.20;3.40;;;;;;;10.77;74.94;100722.44;4757869;30;20035;-79
2021/10/16 04:58:04;;;;;;;15.77;2.83;;;;;;;10.98;75.07;100753.75;4755230;30;20038;-79
2021/10/16 05:00:29;;;;;;;17.30;2.92;;;;;;;10.87;75.80;100730.97;4756912;30;20172;-79
2021/10/16 05:02:55;;;;;;;14.15;2.80;;;;;;;10.55;75.32;100676.81;4788740;30;20481;-79
2021/10/16 05:05:20;;;;;;;12.95;2.33;;;;;;;10.68;74.95;100699.44;4772754;30;20466;-79
2021/10/16 05:07:46;;;;;;;13.45;2.58;;;;;;;11.02;75.21;100737.00;4772617;30;20024;-78
2021/10/16 05:10:11;;;;;;;14.50;2.58;;;;;;;11.03;77.20;100745.91;4788442;30;20422;-79
2021/10/16 05:12:38;;;;;;;19.30;3.60;;;;;;;10.96;77.47;100748.59;4787130;30;20043;-80
2021/10/16 05:15:05;;;;;;;19.63;3.55;;;;;;;10.95;78.62;100727.25;4772914;30;20355;-79
2021/10/16 05:17:30;;;;;;;12.88;2.47;;;;;;;11.02;78.51;100734.28;4758458;30;20031;-79
2021/10/16 05:19:56;;;;;;;14.27;2.63;;;;;;;10.59;78.84;100669.16;4787223;30;20486;-79
2021/10/16 05:22:21;;;;;;;12.38;2.50;;;;;;;10.97;77.87;100757.50;4743059;30;20123;-78
2021/10/16 05:24:47;;;;;;;18.05;2.97;;;;;;;10.98;77.81;100743.00;4772253;30;20027;-78
2021/10/16 05:27:12;;;;;;;17.67;3.47;;;;;;;10.67;77.76;100681.63;4788878;30;20122;-80
2021/10/16 05:29:37;;;;;;;13.93;2.60;;;;;;;10.82;77.39;100726.16;4759963;30;20144;-78
2021/10/16 05:32:03;;;;;;;17.30;3.15;;;;;;;10.87;77.47;100741.72;4773786;30;20370;-79
2021/10/16 05:34:28;;;;;;;13.77;2.90;;;;;;;10.87;77.27;100735.53;4784677;30;20039;-78
2021/10/16 05:36:54;;;;;;;11.90;2.03;;;;;;;10.73;76.01;100732.78;4755299;30;20027;-79
2021/10/16 05:39:19;;;;;;;11.95;2.05;;;;;;;10.90;76.04;100729.72;4786992;30;20124;-79
2021/10/16 05:41:47;;;;;;;11.73;2.30;;;;;;;10.82;76.91;100734.25;4769868;30;20146;-79
2021/10/16 05:44:13;;;;;;;16.13;2.75;;;;;;;10.78;76.33;100733.00;4783300;30;20437;-78
2021/10/16 05:46:38;;;;;;;10.18;2.05;;;;;;;10.85;75.90;100742.97;4770721;30;20118;-79
2021/10/16 05:49:04;;;;;;;9.07;1.95;;;;;;;10.66;75.27;100686.19;4757652;30;20059;-80
2021/10/16 05:51:30;;;;;;;15.63;3.10;;;;;;;10.90;75.22;100735.94;4788264;29;20042;-78
2021/10/16 05:53:56;;;;;;;14.68;2.70;;;;;;;10.76;73.11;100708.16;4792538;30;20095;-78
2021/10/16 05:56:21;;;;;;;12.02;2.35;;;;;;;10.94;73.84;100736.38;4776174;30;20404;-79
2021/10/16 05:58:47;;;;;;;16.35;3.03;;;;;;;10.78;76.25;100724.91;4788326;30;20065;-79
2021/10/16 06:01:12;;;;;;;13.18;2.47;;;;;;;10.90;74.77;100752.09;4777038;30;20032;-79
2021/10/16 06:03:38;;;;;;;14.80;2.80;;;;;;;10.93;74.17;100745.47;4758054;30;20103;-79
2021/10/16 06:06:03;;;;;;;14.70;2.85;;;;;;;10.90;74.16;100760.16;4759182;30;20349;-79
2021/10/16 06:08:28;;;;;;;11.82;2.33;;;;;;;10.79;74.36;100745.44;4758764;30;20113;-79
2021/10/16 06:10:54;;;;;;;12.43;3.25;;;;;;;10.85;75.16;100761.81;4779527;30;20031;-79
2021/10/16 06:13:19;;;;;;;16.83;3.30;;;;;;;10.81;75.34;100748.75;4791008;30;20039;-79
2021/10/16 06:15:45;;;;;;;13.82;2.83;;;;;;;10.86;76.27;100760.75;4775774;30;20039;-79
2021/10/16 06:18:12;;;;;;;11.80;2.42;;;;;;;10.82;77.39;100761.16;4775118;30;20118;-78
2021/10/16 06:20:38;;;;;;;18.25;3.42;;;;;;;10.87;78.04;100775.91;4774208;30;20114;-79
2021/10/16 06:23:04;;;;;;;17.50;2.47;;;;;;;10.80;75.95;100768.63;4775285;30;20122;-78
2021/10/16 06:25:30;;;;;;;19.45;3.25;;;;;;;10.85;76.22;100777.94;4773555;30;20115;-78
2021/10/16 06:27:55;;;;;;;12.45;3.13;;;;;;;10.90;75.86;100767.41;4791004;30;20459;-78
2021/10/16 06:30:21;;;;;;;19.80;3.28;;;;;;;10.86;76.27;100750.84;4790578;30;20035;-78
2021/10/16 06:32:46;;;;;;;17.27;3.17;;;;;;;10.94;78.00;100782.13;4775287;30;20031;-79
2021/10/16 06:35:12;;;;;;;15.20;3.22;;;;;;;10.78;77.37;100754.53;4778719;30;20031;-79
2021/10/16 06:37:37;;;;;;;21.48;4.15;;;;;;;10.88;77.97;100780.25;4759344;30;20035;-79
2021/10/16 06:40:03;;;;;;;12.98;3.13;;;;;;;10.73;78.21;100753.50;4791521;30;20380;-79
2021/10/16 06:42:28;;;;;;;14.52;2.60;;;;;;;10.84;76.60;100776.31;4774429;30;20043;-81
2021/10/16 06:44:54;;;;;;;15.38;2.50;;;;;;;10.70;75.65;100761.97;4774159;30;20043;-78
2021/10/16 06:47:19;;;;;;;24.45;3.65;;;;;;;10.80;77.06;100767.81;4773152;30;20051;-78
2021/10/16 06:49:45;;;;;;;17.52;3.15;;;;;;;10.92;77.25;100768.03;4772073;30;20054;-77
2021/10/16 06:52:10;;;;;;;13.35;2.67;;;;;;;10.97;76.88;100770.97;4759962;30;20043;-79
2021/10/16 06:54:35;;;;;;;9.73;2.35;;;;;;;10.95;75.16;100760.38;4790324;30;20410;-79
2021/10/16 06:57:01;;;;;;;9.18;2.05;;;;;;;11.02;75.22;100766.59;4791044;30;20042;-79
2021/10/16 06:59:26;;;;;;;17.05;3.53;;;;;;;11.03;77.50;100776.38;4791077;30;20031;-78
2021/10/16 07:01:52;;;;;;;14.07;3.38;;;;;;;11.08;78.09;100774.91;4761096;30;20035;-79
2021/10/16 07:04:17;;;;;;;15.05;2.63;;;;;;;10.90;78.55;100748.56;4761591;30;20404;-77
2021/10/16 07:06:42;;;;;;;15.40;3.13;;;;;;;10.95;77.03;100757.69;4778450;30;20445;-83
2021/10/16 07:09:08;;;;;;;20.92;3.00;;;;;;;11.04;77.62;100769.13;4767658;30;20085;-79
2021/10/16 07:11:33;;;;;;;14.55;2.60;;;;;;;11.16;79.00;100782.78;4776082;30;20104;-79
2021/10/16 07:13:59;;;;;;;18.05;2.63;;;;;;;11.17;79.48;100766.44;4775162;30;20122;-80
2021/10/16 07:16:25;;;;;;;17.23;2.90;;;;;;;11.09;79.23;100768.50;4758154;30;20035;-79
2021/10/16 07:18:51;;;;;;;18.55;3.42;;;;;;;11.16;78.55;100789.03;4774484;30;20035;-80
2021/10/16 07:21:16;;;;;;;10.07;2.25;;;;;;;11.16;77.45;100805.19;4762113;30;20082;-78
2021/10/16 07:23:45;;;;;;;14.52;2.55;;;;;;;10.94;77.02;100779.44;4757992;30;20032;-78
2021/10/16 07:26:10;;;;;;;12.80;2.35;;;;;;;11.02;75.65;100780.06;4786143;30;20039;-79
2021/10/16 07:28:35;;;;;;;9.63;2.22;;;;;;;11.23;73.97;100792.56;4780955;30;20032;-79
2021/10/16 07:31:03;;;;;;;15.00;2.63;;;;;;;11.26;74.46;100812.91;4761500;30;20099;-79
2021/10/16 07:33:28;;;;;;;10.63;2.28;;;;;;;11.25;73.82;100821.97;4761472;30;20076;-79
2021/10/16 07:35:53;;;;;;;11.93;2.50;;;;;;;11.24;73.91;100817.63;4788282;30;20443;-79
2021/10/16 07:38:19;;;;;;;17.63;2.65;;;;;;;11.17;75.13;100793.38;4757086;30;20511;-78
2021/10/16 07:40:45;;;;;;;14.65;2.60;;;;;;;11.22;74.59;100798.97;4786190;30;20382;-78
2021/10/16 07:43:11;;;;;;;13.20;2.72;;;;;;;11.40;74.08;100824.53;4784693;30;20065;-78
2021/10/16 07:45:37;;;;;;;16.33;2.97;;;;;;;11.39;74.14;100830.94;4759913;30;20130;-79
2021/10/16 07:48:03;;;;;;;13.25;2.22;;;;;;;11.36;73.63;100825.97;4789523;30;20110;-77
2021/10/16 07:50:29;;;;;;;12.60;2.60;;;;;;;11.29;74.40;100840.25;4756861;30;20066;-78
2021/10/16 07:52:54;;;;;;;23.33;3.45;;;;;;;11.24;76.04;100828.41;4739578;30;20044;-80
2021/10/16 07:55:20;;;;;;;8.18;1.98;;;;;;;11.02;76.16;100796.22;4752905;30;20044;-78
2021/10/16 07:57:45;;;;;;;16.52;3.20;;;;;;;11.27;77.69;100828.00;4736724;30;20051;-78
2021/10/16 08:00:11;;;;;;;14.88;2.95;;;;;;;11.31;77.97;100823.88;4766486;30;20069;-78
2021/10/16 08:02:36;;;;;;;16.25;3.35;;;;;;;11.39;77.03;100828.22;4754657;30;20055;-78
2021/10/16 08:05:02;;;;;;;16.55;3.75;;;;;;;11.44;77.69;100833.84;4771443;30;20032;-78
2021/10/16 08:07:31;;;;;;;12.38;2.40;;;;;;;11.41;76.15;100823.47;4739494;30;20490;-78
2021/10/16 08:09:56;;;;;;;14.23;3.22;;;;;;;11.44;76.41;100817.69;4755744;30;20035;-78
2021/10/16 08:12:22;;;;;;;15.70;3.13;;;;;;;11.24;76.17;100806.88;4756071;30;20097;-78
2021/10/16 08:14:48;;;;;;;19.92;2.60;;;;;;;11.42;74.74;100825.13;4769683;30;20089;-78
2021/10/16 08:17:14;;;;;;;17.23;3.63;;;;;;;11.46;75.27;100831.81;4741036;30;20371;-78
2021/10/16 08:19:40;;;;;;;19.15;3.60;;;;;;;11.53;75.67;100838.84;4756472;30;20063;-79
2021/10/16 08:22:14;;;;;;;14.68;3.40;;;;;;;11.51;75.90;100807.75;4760785;30;20474;-78
2021/10/16 08:24:39;;;;;;;10.77;2.90;;;;;;;11.50;74.96;100827.66;4756669;30;20088;-78
2021/10/16 08:27:05;;;;;;;19.42;3.58;;;;;;;11.43;74.52;100824.94;4756503;30;20122;-78
2021/10/16 08:29:30;;;;;;;13.48;2.72;;;;;;;11.43;71.47;100822.25;4757767;30;20379;-79
2021/10/16 08:31:55;;;;;;;10.23;2.00;;;;;;;11.44;71.61;100829.28;4773330;30;20096;-80
2021/10/16 08:34:21;;;;;;;19.48;3.00;;;;;;;11.48;72.85;100829.72;4754785;30;20092;-78
2021/10/16 08:36:46;;;;;;;12.32;2.25;;;;;;;11.56;72.77;100844.88;4755587;30;20136;-79
2021/10/16 08:39:12;;;;;;;11.70;2.58;;;;;;;11.56;73.17;100848.41;4757718;30;20460;-78
2021/10/16 08:41:41;;;;;;;11.13;2.55;;;;;;;11.56;73.17;100843.00;4752933;30;20474;-79
2021/10/16 08:44:07;;;;;;;13.93;2.70;;;;;;;11.49;74.13;100817.91;4741409;30;20043;-80
2021/10/16 08:46:39;;;;;;;13.40;2.15;;;;;;;11.58;74.83;100846.31;4756033;30;20040;-78
2021/10/16 08:49:05;;;;;;;14.82;2.75;;;;;;;11.63;74.11;100824.97;4744675;30;20480;-78
2021/10/16 08:51:31;;;;;;;13.20;2.97;;;;;;;11.51;74.62;100830.13;4768353;30;20050;-80
2021/10/16 08:53:56;;;;;;;14.80;2.33;;;;;;;11.65;75.44;100852.53;4757933;30;20361;-79
2021/10/16 08:56:22;;;;;;;18.10;3.47;;;;;;;11.68;74.79;100852.13;4773379;30;20075;-79
2021/10/16 08:58:48;;;;;;;15.82;3.08;;;;;;;11.66;74.74;100843.44;4773900;30;20061;-77
2021/10/16 09:01:14;;;;;;;20.08;3.60;;;;;;;11.71;75.28;100850.91;4774522;30;20580;-79
2021/10/16 09:03:46;;;;;;;15.73;2.60;;;;;;;11.66;74.77;100845.31;4776237;30;20039;-78
2021/10/16 09:06:25;;;;;;;11.70;2.05;;;;;;;11.64;75.01;100852.75;4789434;30;20027;-79
2021/10/16 09:09:09;;;;;;;15.38;2.80;;;;;;;11.50;74.90;100851.91;4772923;30;20435;-79
2021/10/16 09:11:38;;;;;;;14.87;2.80;;;;;;;11.55;74.94;100835.94;4772765;30;20039;-79
2021/10/16 09:14:06;;;;;;;17.75;3.63;;;;;;;11.58;75.17;100830.13;4773050;30;20027;-78
2021/10/16 09:16:55;;;;;;;15.65;3.72;;;;;;;11.69;74.99;100852.97;4772326;30;20382;-79
2021/10/16 09:19:24;;;;;;;21.75;2.83;;;;;;;11.73;74.42;100836.19;4772766;30;20105;-78
2021/10/16 09:21:54;;;;;;;11.30;2.47;;;;;;;11.74;74.07;100845.09;4777405;30;20474;-79
2021/10/16 09:24:42;;;;;;;10.63;2.47;;;;;;;11.75;74.28;100841.34;4773449;30;20031;-79
2021/10/16 09:27:13;;;;;;;16.83;2.55;;;;;;;11.65;72.93;100852.53;4789090;29;20031;-79
2021/10/16 09:29:41;;;;;;;13.70;2.40;;;;;;;11.58;72.21;100826.63;4793029;30;20038;-79
2021/10/16 09:32:12;;;;;;;17.63;2.83;;;;;;;11.70;72.09;100849.25;4793576;30;20041;-79
2021/10/16 09:34:40;;;;;;;12.75;2.20;;;;;;;11.73;70.80;100862.31;4772536;30;20500;-79
2021/10/16 09:37:09;;;;;;;11.63;2.50;;;;;;;11.84;69.18;100885.13;4790482;30;20035;-81
2021/10/16 09:39:38;;;;;;;12.75;2.42;;;;;;;11.84;68.88;100853.63;4777319;30;20031;-79
2021/10/16 09:42:05;;;;;;;9.23;2.00;;;;;;;11.82;68.84;100855.69;4775801;30;20035;-79
2021/10/16 09:44:32;;;;;;;10.88;1.73;;;;;;;11.89;68.76;100863.81;4756084;30;20039;-80
2021/10/16 09:47:15;;;;;;;14.30;2.15;;;;;;;11.79;68.99;100856.09;4772333;29;20035;-79
2021/10/16 09:49:47;;;;;;;18.90;2.92;;;;;;;11.94;67.64;100874.81;4746681;30;20064;-81
2021/10/16 09:52:14;;;;;;;13.00;2.42;;;;;;;11.93;68.07;100865.06;4766517;30;20040;-79
2021/10/16 09:54:42;;;;;;;13.77;2.47;;;;;;;11.97;67.80;100869.00;4768210;30;20046;-80
2021/10/16 09:57:09;;;;;;;13.65;2.38;;;;;;;11.91;68.20;100877.91;4764792;30;20032;-79
2021/10/16 09:59:37;;;;;;;9.77;2.17;;;;;;;11.99;69.28;100894.72;4751315;30;20032;-79
2021/10/16 10:02:04;;;;;;;14.30;2.70;;;;;;;12.01;69.43;100901.78;4753989;30;20059;-79
2021/10/16 10:04:33;;;;;;;14.52;2.88;;;;;;;11.99;68.93;100902.81;4753565;30;20046;-79
2021/10/16 10:07:00;;;;;;;9.30;2.42;;;;;;;12.01;69.42;100897.22;4766489;30;20463;-79
2021/10/16 10:09:27;;;;;;;14.90;2.75;;;;;;;11.90;69.50;100897.81;4739252;30;20047;-79
2021/10/16 10:11:53;;;;;;;13.60;2.78;;;;;;;12.07;70.44;100899.09;4775294;30;20453;-79
2021/10/16 10:14:20;;;;;;;17.13;2.95;;;;;;;12.08;69.64;100899.91;4751940;30;20057;-79
2021/10/16 10:16:48;;;;;;;14.30;2.72;;;;;;;12.09;71.11;100902.41;4750676;30;20113;-79
2021/10/16 10:19:15;;;;;;;13.85;3.00;;;;;;;12.12;71.77;100909.25;4775548;30;20085;-78
2021/10/16 10:21:43;;;;;;;12.52;1.88;;;;;;;12.15;71.71;100906.13;4754090;30;20051;-80
2021/10/16 10:24:11;;;;;;;14.20;2.65;;;;;;;12.13;70.98;100906.34;4748666;30;20027;-79
2021/10/16 10:26:38;;;;;;;17.50;3.15;;;;;;;12.08;71.77;100916.91;4749354;30;20604;-79
2021/10/16 10:29:12;;;;;;;11.05;2.40;;;;;;;12.08;73.44;100916.91;4766035;30;20028;-79
2021/10/16 10:31:44;;;;;;;11.85;2.47;;;;;;;12.04;73.06;100926.47;4773304;30;20038;-78
2021/10/16 10:34:17;;;;;;;16.08;2.70;;;;;;;12.06;74.57;100919.00;4769927;30;20049;-78
2021/10/16 10:36:50;;;;;;;15.18;2.85;;;;;;;11.96;74.74;100905.94;4751851;30;20543;-77
2021/10/16 10:39:32;;;;;;;19.08;3.20;;;;;;;11.94;73.85;100920.66;4755065;30;20451;-79
2021/10/16 10:42:13;;;;;;;15.65;2.80;;;;;;;12.01;73.15;100924.19;4758103;30;20470;-78
2021/10/16 10:44:41;;;;;;;8.93;1.90;;;;;;;12.00;73.81;100925.22;4773857;30;20153;-79
2021/10/16 10:47:36;;;;;;;15.25;2.65;;;;;;;12.02;76.03;100917.75;4757376;30;20035;-79
2021/10/16 10:50:08;;;;;;;22.33;3.60;;;;;;;12.07;77.73;100907.16;4742975;30;20075;-80
2021/10/16 10:53:06;;;;;;;12.57;2.30;;;;;;;12.03;77.01;100913.19;4760720;30;20058;-79
2021/10/16 10:55:50;;;;;;;9.85;2.15;;;;;;;11.97;75.77;100910.28;4753273;30;20032;-79
2021/10/16 10:58:16;;;;;;;10.93;1.85;;;;;;;11.83;75.31;100845.72;4757532;30;20066;-79
2021/10/16 11:00:41;;;;;;;14.20;2.47;;;;;;;11.94;75.56;100888.28;4756083;30;20035;-78
2021/10/16 11:03:25;;;;;;;12.98;2.20;;;;;;;12.07;76.08;100907.16;4772345;30;20071;-79
2021/10/16 11:05:50;;;;;;;15.02;2.25;;;;;;;12.01;76.26;100882.91;4773445;30;20032;-79
2021/10/16 11:08:16;;;;;;;14.60;1.92;;;;;;;12.31;75.97;100907.59;4753801;30;20046;-79
2021/10/16 11:10:43;;;;;;;9.88;1.95;;;;;;;12.20;74.50;100876.69;4772113;30;20039;-79
2021/10/16 11:13:16;;;;;;;14.75;2.83;;;;;;;12.35;73.33;100906.13;4756210;30;20528;-79
2021/10/16 11:15:43;;;;;;;15.43;2.75;;;;;;;12.21;72.49;100898.03;4757110;30;20031;-78